Time;durP1;ratioP1;P1;durP2;ratioP2;P2;SDS_P1;SDS_P2;PMS_P1;PMS_P2;Temp;Humidity;BMP_temperature;BMP_pressure;BME280_temperature;BME280_humidity;BME280_pressure;Samples;Min_cycle;Max_cycle;Signal;HPM_P1;HPM_P2
2023/03/19 00:02:20;;;;;;;9.32;3.58;;;;;;;13.69;61.02;99995.38;12969568;22;20019;-71
2023/03/19 00:07:21;;;;;;;7.03;3.92;;;;;;;13.72;61.12;100000.34;12967237;22;20102;-70
2023/03/19 00:12:23;;;;;;;8.60;3.75;;;;;;;13.71;61.60;99998.69;12986515;22;20015;-68
2023/03/19 00:17:24;;;;;;;8.95;3.55;;;;;;;13.68;61.20;99996.41;13006095;22;20470;-70
2023/03/19 00:22:25;;;;;;;7.05;3.00;;;;;;;13.53;61.95;99998.47;12953376;22;20032;-69
2023/03/19 00:27:27;;;;;;;7.70;3.05;;;;;;;13.54;61.88;100003.63;12997428;22;20023;-68
2023/03/19 00:32:28;;;;;;;7.72;3.22;;;;;;;13.21;62.38;99998.97;12996747;22;20097;-67
2023/03/19 00:37:30;;;;;;;10.18;3.30;;;;;;;12.96;63.42;100012.13;12967283;22;20027;-69
2023/03/19 00:42:32;;;;;;;5.70;3.33;;;;;;;12.97;63.33;100002.16;12978882;22;20073;-68
2023/03/19 00:47:33;;;;;;;7.30;3.25;;;;;;;13.04;63.41;100009.25;12946331;22;20027;-69
2023/03/19 00:52:34;;;;;;;7.32;3.25;;;;;;;13.08;63.95;100007.00;12975461;22;20089;-67
2023/03/19 00:57:36;;;;;;;7.78;3.17;;;;;;;13.13;64.00;100015.31;13009585;22;20053;-67
2023/03/19 01:02:37;;;;;;;9.25;4.22;;;;;;;13.15;64.44;100007.84;13012197;22;20012;-68
2023/03/19 01:07:39;;;;;;;10.15;4.07;;;;;;;13.16;64.75;100004.13;13017995;22;20071;-68
2023/03/19 01:12:40;;;;;;;10.90;4.68;;;;;;;13.09;64.84;100006.78;13015744;22;20146;-66
2023/03/19 01:17:42;;;;;;;9.65;3.65;;;;;;;13.08;64.87;99999.72;13014220;22;20027;-67
2023/03/19 01:22:44;;;;;;;8.02;4.13;;;;;;;12.82;65.82;100013.91;13016501;22;20024;-68
2023/03/19 01:27:46;;;;;;;10.35;4.45;;;;;;;12.76;65.73;100013.88;13014562;22;20020;-69
2023/03/19 01:32:48;;;;;;;9.10;3.90;;;;;;;12.87;65.83;100019.56;13013309;22;20026;-68
2023/03/19 01:37:49;;;;;;;8.40;4.38;;;;;;;12.96;65.55;100011.28;13014307;22;20024;-66
2023/03/19 01:42:54;;;;;;;8.98;3.95;;;;;;;12.96;65.32;100006.72;13010672;22;20024;-69
2023/03/19 01:47:55;;;;;;;5.55;4.10;;;;;;;12.93;65.85;100011.69;13020662;22;20016;-70
2023/03/19 01:52:56;;;;;;;7.70;3.60;;;;;;;12.91;65.89;100011.88;13013960;22;20011;-66
2023/03/19 01:57:58;;;;;;;9.07;4.05;;;;;;;12.85;66.06;100004.59;13020137;22;20031;-67
2023/03/19 02:03:01;;;;;;;6.40;3.55;;;;;;;12.83;66.16;100012.03;12988752;22;20074;-68
2023/03/19 02:08:06;;;;;;;10.70;4.80;;;;;;;12.66;66.63;100006.97;13013503;22;20387;-68
2023/03/19 02:13:07;;;;;;;8.90;3.70;;;;;;;12.61;66.67;100014.00;12992144;22;20050;-67
2023/03/19 02:18:09;;;;;;;6.22;3.55;;;;;;;12.56;66.77;100028.06;13025440;22;20036;-67
2023/03/19 02:23:29;;;;;;;10.38;3.80;;;;;;;12.28;67.42;100017.28;13013985;22;20020;-68
2023/03/19 02:28:32;;;;;;;9.52;4.13;;;;;;;12.25;67.72;100017.69;13018922;22;20080;-68
2023/03/19 02:33:34;;;;;;;10.32;4.30;;;;;;;12.31;67.12;100016.91;13019557;22;20126;-68
2023/03/19 02:38:37;;;;;;;8.90;3.13;;;;;;;12.36;67.21;100014.47;13012682;22;20028;-68
2023/03/19 02:43:40;;;;;;;6.85;3.60;;;;;;;12.43;66.72;100001.84;13011433;22;20028;-69
2023/03/19 02:48:42;;;;;;;9.90;2.92;;;;;;;12.44;66.65;100008.91;13016641;22;20089;-68
2023/03/19 02:53:44;;;;;;;9.00;3.58;;;;;;;12.41;67.37;100030.03;13015934;22;20103;-67
2023/03/19 02:58:46;;;;;;;9.02;3.28;;;;;;;12.45;67.03;100024.03;13010124;22;20020;-69
2023/03/19 03:03:48;;;;;;;10.73;3.60;;;;;;;12.47;66.68;100021.16;12983192;22;20020;-69
2023/03/19 03:08:50;;;;;;;11.63;3.80;;;;;;;12.44;66.70;100022.41;13011403;22;20033;-69
2023/03/19 03:13:52;;;;;;;12.77;3.75;;;;;;;12.38;66.89;100019.63;13009377;22;20023;-67
2023/03/19 03:18:53;;;;;;;10.75;4.00;;;;;;;12.27;67.21;100024.53;13004852;22;20086;-68
2023/03/19 03:23:55;;;;;;;12.30;3.95;;;;;;;12.19;67.35;100021.97;13012750;22;20088;-66
2023/03/19 03:28:56;;;;;;;9.27;4.55;;;;;;;12.09;67.19;100024.19;13005046;22;20019;-71
2023/03/19 03:33:57;;;;;;;8.75;4.63;;;;;;;12.00;67.66;100020.78;12995961;22;20019;-72
2023/03/19 03:38:59;;;;;;;10.32;4.13;;;;;;;11.88;67.10;100023.13;12996264;22;20023;-68
2023/03/19 03:44:00;;;;;;;10.25;5.05;;;;;;;11.81;67.55;100026.78;12994580;22;20018;-69
2023/03/19 03:49:02;;;;;;;12.30;5.72;;;;;;;11.71;67.28;100030.63;12995278;22;20034;-69
2023/03/19 03:54:03;;;;;;;11.75;6.70;;;;;;;11.54;68.08;100029.19;12970225;22;20050;-69
2023/03/19 03:59:05;;;;;;;10.80;7.15;;;;;;;11.43;67.78;100033.22;13003574;22;20050;-70
2023/03/19 04:04:06;;;;;;;8.10;6.07;;;;;;;11.38;67.75;100040.19;12997190;22;20027;-72
2023/03/19 04:09:08;;;;;;;15.95;7.72;;;;;;;11.32;68.21;100031.84;12973835;22;20093;-70
2023/03/19 04:14:09;;;;;;;9.10;5.05;;;;;;;11.30;68.25;100044.66;12973826;22;20024;-72
2023/03/19 04:19:10;;;;;;;9.60;4.82;;;;;;;11.26;67.95;100051.44;12972603;22;20027;-72
2023/03/19 04:24:13;;;;;;;9.88;5.63;;;;;;;11.21;67.85;100051.16;12946562;22;20028;-68
2023/03/19 04:29:15;;;;;;;15.63;5.80;;;;;;;11.16;68.01;100067.03;12973805;22;20706;-70
2023/03/19 04:34:16;;;;;;;11.65;5.00;;;;;;;11.04;68.21;100069.38;12971256;22;20496;-72
2023/03/19 04:39:18;;;;;;;8.02;4.85;;;;;;;10.94;68.87;100076.03;12973573;22;20024;-71
2023/03/19 04:44:20;;;;;;;13.40;6.25;;;;;;;10.91;68.51;100078.06;12971936;22;20027;-71
2023/03/19 04:49:23;;;;;;;10.60;5.72;;;;;;;10.89;68.61;100079.28;12975192;22;20023;-72
2023/03/19 04:54:24;;;;;;;11.25;5.13;;;;;;;10.83;68.65;100083.53;12980228;22;20118;-72
2023/03/19 04:59:26;;;;;;;13.48;5.40;;;;;;;10.85;68.49;100081.50;12973565;22;20059;-71
2023/03/19 05:04:27;;;;;;;10.25;5.50;;;;;;;10.80;69.16;100083.06;12975397;22;20058;-71
2023/03/19 05:09:29;;;;;;;12.60;6.00;;;;;;;10.73;69.14;100085.66;12972603;22;20458;-73
2023/03/19 05:14:31;;;;;;;11.63;5.55;;;;;;;10.79;68.88;100082.25;12972556;22;20034;-71
2023/03/19 05:19:32;;;;;;;13.98;6.13;;;;;;;10.80;68.79;100094.69;12971368;22;20097;-73
2023/03/19 05:24:35;;;;;;;13.93;6.97;;;;;;;10.78;68.98;100094.03;12944022;22;20024;-71
2023/03/19 05:29:36;;;;;;;9.30;6.00;;;;;;;10.68;68.85;100099.66;12982897;22;20034;-70
2023/03/19 05:34:41;;;;;;;13.25;5.88;;;;;;;10.75;68.91;100098.94;12972283;22;20093;-71
2023/03/19 05:39:42;;;;;;;9.48;5.28;;;;;;;10.78;68.60;100110.16;12943885;22;20023;-68
2023/03/19 05:44:44;;;;;;;11.43;7.05;;;;;;;10.78;68.80;100120.06;12918830;22;20020;-70
2023/03/19 05:49:46;;;;;;;19.52;10.52;;;;;;;10.78;68.54;100123.59;12974590;22;20046;-70
2023/03/19 05:54:49;;;;;;;15.60;7.35;;;;;;;10.78;68.98;100120.06;12975984;22;20031;-71
2023/03/19 05:59:51;;;;;;;14.65;6.70;;;;;;;10.83;68.98;100121.19;12945566;22;20023;-71
2023/03/19 06:04:53;;;;;;;10.35;5.63;;;;;;;10.88;69.08;100129.56;12946496;22;20081;-71
2023/03/19 06:09:54;;;;;;;13.00;6.25;;;;;;;11.03;68.54;100137.63;12948634;22;20078;-70
2023/03/19 06:14:56;;;;;;;14.63;6.03;;;;;;;11.17;68.02;100138.66;12920750;22;20024;-70
2023/03/19 06:19:57;;;;;;;10.98;6.00;;;;;;;11.29;67.47;100134.50;12945169;22;20103;-70
2023/03/19 06:25:01;;;;;;;9.93;5.22;;;;;;;11.41;67.48;100142.06;12951416;22;20097;-70
2023/03/19 06:30:04;;;;;;;14.45;6.78;;;;;;;11.56;66.74;100142.06;12983031;22;20095;-70
2023/03/19 06:35:05;;;;;;;12.38;5.85;;;;;;;11.68;66.67;100149.47;12970444;22;20027;-70
2023/03/19 06:40:07;;;;;;;11.50;6.45;;;;;;;11.85;65.67;100155.50;12977103;22;20456;-70
2023/03/19 06:45:09;;;;;;;14.07;5.47;;;;;;;12.00;65.86;100163.56;12955031;22;20085;-70
2023/03/19 06:50:11;;;;;;;15.50;6.18;;;;;;;12.17;65.15;100166.84;12945243;22;20035;-71
2023/03/19 06:55:12;;;;;;;9.27;5.93;;;;;;;12.19;64.74;100172.06;12976895;22;20023;-71
2023/03/19 07:00:15;;;;;;;9.40;5.78;;;;;;;12.37;64.37;100169.75;12919650;22;20312;-69
2023/03/19 07:05:16;;;;;;;9.98;5.97;;;;;;;12.45;64.25;100169.63;12946614;22;20020;-66
2023/03/19 07:10:20;;;;;;;8.65;5.43;;;;;;;12.59;63.65;100169.75;12941533;22;20028;-71
2023/03/19 07:15:22;;;;;;;8.88;5.15;;;;;;;12.78;62.99;100182.59;12916870;22;20028;-70
2023/03/19 07:20:23;;;;;;;15.05;5.47;;;;;;;12.93;62.79;100185.19;12954480;22;20034;-69
2023/03/19 07:25:25;;;;;;;9.05;5.43;;;;;;;13.06;62.22;100177.19;12970075;22;20039;-70
2023/03/19 07:30:26;;;;;;;13.90;5.38;;;;;;;13.24;62.14;100182.09;12948581;22;20042;-71
2023/03/19 07:35:28;;;;;;;8.52;5.22;;;;;;;13.51;61.72;100187.69;12920985;22;20019;-71
2023/03/19 07:40:30;;;;;;;13.00;5.47;;;;;;;13.59;61.58;100190.22;12976646;22;20027;-71
2023/03/19 07:45:31;;;;;;;7.70;4.90;;;;;;;13.78;61.38;100187.81;12946622;22;20024;-69
2023/03/19 07:50:33;;;;;;;12.05;5.50;;;;;;;13.98;60.60;100196.00;12947357;22;20468;-70
2023/03/19 07:55:36;;;;;;;10.80;5.10;;;;;;;14.05;60.17;100197.69;12946696;22;20119;-68
2023/03/19 08:00:38;;;;;;;7.80;5.28;;;;;;;14.14;60.13;100186.69;12971245;22;20046;-68
2023/03/19 08:05:40;;;;;;;10.73;5.50;;;;;;;14.27;59.57;100192.97;12957520;22;20047;-70
2023/03/19 08:10:42;;;;;;;12.70;5.45;;;;;;;14.25;59.58;100205.03;12922401;22;20038;-70
2023/03/19 08:15:44;;;;;;;11.63;5.93;;;;;;;14.39;59.20;100203.19;12929657;22;20492;-66
2023/03/19 08:20:45;;;;;;;11.02;5.45;;;;;;;14.43;59.01;100212.56;12983186;22;20027;-67
2023/03/19 08:25:50;;;;;;;8.25;5.32;;;;;;;14.61;58.34;100209.28;12981797;22;20027;-66
2023/03/19 08:30:52;;;;;;;10.50;6.75;;;;;;;14.67;58.36;100208.47;12983892;22;20034;-67
2023/03/19 08:36:02;;;;;;;7.85;6.18;;;;;;;14.71;58.06;100206.19;12981991;22;20030;-66
2023/03/19 08:41:05;;;;;;;9.45;5.65;;;;;;;14.76;57.87;100209.13;12984491;22;20103;-68
2023/03/19 08:46:06;;;;;;;8.60;5.03;;;;;;;14.93;57.65;100212.22;12987164;22;20111;-67
2023/03/19 08:51:08;;;;;;;7.45;5.00;;;;;;;15.06;57.17;100212.25;12984114;22;20805;-66
2023/03/19 08:56:10;;;;;;;6.38;5.05;;;;;;;15.09;56.99;100209.13;12982077;22;20097;-65
2023/03/19 09:01:13;;;;;;;11.40;5.13;;;;;;;15.38;56.26;100223.25;12987597;22;20054;-67
2023/03/19 09:06:14;;;;;;;9.77;4.53;;;;;;;15.52;55.78;100224.91;12984074;22;20635;-68
2023/03/19 09:11:16;;;;;;;9.10;4.63;;;;;;;15.66;55.30;100223.00;12994292;22;20035;-66
2023/03/19 09:16:18;;;;;;;9.32;4.43;;;;;;;15.83;55.25;100221.50;12979604;22;20054;-66
2023/03/19 09:21:20;;;;;;;7.85;3.60;;;;;;;16.05;54.93;100227.50;12985411;22;20030;-66
2023/03/19 09:26:21;;;;;;;7.65;3.78;;;;;;;16.04;54.77;100231.22;12979019;22;20518;-66
2023/03/19 09:31:23;;;;;;;7.55;3.75;;;;;;;16.21;53.98;100226.16;12979483;22;20043;-65
2023/03/19 09:36:25;;;;;;;4.35;2.50;;;;;;;16.37;53.72;100222.13;12978463;22;20035;-67
2023/03/19 09:41:30;;;;;;;5.97;2.92;;;;;;;16.75;52.96;100215.00;12976931;22;20085;-66
2023/03/19 09:46:42;;;;;;;2.92;2.17;;;;;;;16.97;52.68;100219.00;12976583;22;20028;-65
2023/03/19 09:51:49;;;;;;;6.53;1.80;;;;;;;17.14;52.15;100224.72;12980539;22;20047;-68
2023/03/19 09:56:51;;;;;;;7.75;2.22;;;;;;;17.22;52.02;100229.06;12973206;22;20020;-68
2023/03/19 10:01:59;;;;;;;3.95;2.20;;;;;;;17.46;51.04;100227.34;12956014;22;20028;-65
2023/03/19 10:07:11;;;;;;;4.78;2.20;;;;;;;17.77;50.57;100212.81;12946972;22;20023;-65
2023/03/19 10:12:25;;;;;;;3.40;1.95;;;;;;;17.85;50.48;100208.97;12956252;22;20028;-67
2023/03/19 10:17:32;;;;;;;4.45;2.00;;;;;;;18.08;50.03;100223.75;12965505;22;20079;-67
2023/03/19 10:22:42;;;;;;;;;;;;;;;18.17;50.72;100225.13;12990440;22;20046;-67
2023/03/19 10:27:46;;;;;;;6.40;1.50;;;;;;;18.30;50.15;100224.91;12994962;22;19915;-66
2023/03/19 10:32:53;;;;;;;2.30;1.00;;;;;;;18.25;49.40;100216.63;13002936;22;20073;-68
2023/03/19 10:37:55;;;;;;;2.13;1.00;;;;;;;18.32;49.02;100214.63;12983876;22;20035;-66
2023/03/19 10:43:16;;;;;;;4.72;1.48;;;;;;;18.49;48.39;100217.56;13004821;22;20045;-66
2023/03/19 10:48:18;;;;;;;4.05;0.98;;;;;;;18.33;48.44;100219.03;12977717;22;20345;-65
2023/03/19 10:53:38;;;;;;;3.47;0.95;;;;;;;18.31;48.33;100231.22;13008293;22;20043;-68
2023/03/19 10:58:40;;;;;;;2.38;1.20;;;;;;;18.43;48.05;100223.94;12959454;22;20023;-66
2023/03/19 11:03:56;;;;;;;3.05;1.08;;;;;;;18.25;47.86;100213.91;13023863;22;20011;-66
2023/03/19 11:09:06;;;;;;;1.85;1.10;;;;;;;18.15;48.27;100235.41;13027542;22;20024;-66
2023/03/19 11:14:17;;;;;;;4.72;1.45;;;;;;;18.05;48.32;100227.78;12998266;22;20024;-66
2023/03/19 11:19:28;;;;;;;4.18;1.23;;;;;;;17.81;48.65;100227.59;13026380;22;20063;-66
2023/03/19 11:24:36;;;;;;;4.15;1.15;;;;;;;17.48;49.16;100227.13;12986674;22;20016;-68
2023/03/19 11:29:42;;;;;;;2.47;1.25;;;;;;;17.43;49.37;100238.66;13021702;22;20162;-65
2023/03/19 11:34:48;;;;;;;2.17;1.53;;;;;;;17.40;49.90;100228.25;13022846;22;20045;-66
2023/03/19 11:39:52;;;;;;;6.82;1.70;;;;;;;17.12;50.77;100225.97;13009622;22;20027;-66
2023/03/19 11:45:21;;;;;;;5.20;1.40;;;;;;;17.05;50.92;100226.06;13019821;22;20434;-67
2023/03/19 11:51:07;;;;;;;3.08;1.30;;;;;;;17.16;51.02;100225.34;12982479;22;20028;-67
2023/03/19 11:56:34;;;;;;;2.92;1.20;;;;;;;17.30;51.02;100215.19;12969833;22;20077;-67
2023/03/19 12:01:53;;;;;;;1.98;1.38;;;;;;;17.57;50.80;100213.00;12965634;22;20028;-67
2023/03/19 12:07:20;;;;;;;3.88;1.20;;;;;;;17.61;50.96;100211.53;12972798;22;20024;-67
2023/03/19 12:12:28;;;;;;;5.15;1.95;;;;;;;17.74;50.99;100210.53;12979349;22;20296;-67
2023/03/19 12:17:37;;;;;;;2.13;1.60;;;;;;;17.83;50.40;100205.59;12985088;22;20482;-66
2023/03/19 12:22:44;;;;;;;4.82;1.48;;;;;;;18.12;50.05;100212.19;12976221;22;20086;-66
2023/03/19 12:28:17;;;;;;;3.00;1.70;;;;;;;17.95;50.05;100203.84;12976302;22;20023;-67
2023/03/19 12:33:37;;;;;;;3.20;2.25;;;;;;;17.87;50.27;100206.88;12973581;22;20028;-66
2023/03/19 12:38:47;;;;;;;4.38;2.45;;;;;;;17.89;51.14;100206.63;12975903;22;20030;-67
2023/03/19 12:43:58;;;;;;;4.80;2.70;;;;;;;18.08;50.48;100210.97;12949074;22;20475;-66
2023/03/19 12:49:23;;;;;;;4.90;2.00;;;;;;;18.56;49.72;100201.97;12974507;22;20043;-67
2023/03/19 12:54:30;;;;;;;2.47;1.30;;;;;;;18.61;49.15;100204.78;12982292;22;20398;-67
2023/03/19 12:59:35;;;;;;;5.32;1.45;;;;;;;18.95;47.68;100190.69;12984602;22;20024;-67
2023/03/19 13:04:52;;;;;;;3.10;1.63;;;;;;;18.80;47.89;100202.06;12920084;22;20023;-67
2023/03/19 13:10:08;;;;;;;3.95;1.35;;;;;;;18.69;47.28;100206.38;12973191;22;20047;-67
2023/03/19 13:15:26;;;;;;;1.85;0.80;;;;;;;18.98;46.41;100204.69;12974940;22;20028;-67
2023/03/19 13:20:47;;;;;;;1.52;0.60;;;;;;;18.91;46.49;100217.56;12947786;22;20370;-67
2023/03/19 13:25:51;;;;;;;1.63;0.43;;;;;;;18.27;47.19;100230.03;12970543;22;20368;-67
2023/03/19 13:31:04;;;;;;;1.42;0.60;;;;;;;17.90;48.34;100227.34;12950518;22;20034;-65
2023/03/19 13:36:13;;;;;;;1.75;0.40;;;;;;;17.24;49.84;100237.81;12973412;22;20024;-67
2023/03/19 13:41:33;;;;;;;0.40;0.30;;;;;;;17.16;50.27;100243.50;12971532;22;20577;-67
2023/03/19 13:46:37;;;;;;;1.85;0.60;;;;;;;16.84;51.32;100230.81;12942388;22;20019;-65
2023/03/19 13:51:38;;;;;;;0.65;0.40;;;;;;;16.54;51.88;100232.44;12940495;22;20016;-64
2023/03/19 13:57:11;;;;;;;0.55;0.30;;;;;;;16.51;52.02;100222.00;12973815;22;20106;-67
2023/03/19 14:02:22;;;;;;;1.55;0.20;;;;;;;16.66;51.99;100227.97;12907469;22;20035;-67
2023/03/19 14:07:27;;;;;;;1.35;0.35;;;;;;;16.65;52.46;100227.16;12968728;22;20513;-66
2023/03/19 14:12:33;;;;;;;3.20;0.25;;;;;;;16.56;53.02;100225.75;12945188;22;20142;-65
2023/03/19 14:17:52;;;;;;;0.80;0.20;;;;;;;16.52;52.68;100219.09;12984579;22;20502;-65
2023/03/19 14:23:20;;;;;;;1.60;0.73;;;;;;;16.42;53.47;100211.41;12946273;22;20020;-66
2023/03/19 14:28:37;;;;;;;0.70;0.20;;;;;;;16.12;54.63;100213.06;12947019;22;20024;-62
2023/03/19 14:33:54;;;;;;;0.75;0.22;;;;;;;16.40;54.14;100208.09;12969097;22;20028;-65
2023/03/19 14:38:59;;;;;;;0.40;0.15;;;;;;;16.84;52.96;100203.66;12942725;22;20015;-65
2023/03/19 14:44:34;;;;;;;0.88;0.30;;;;;;;17.17;52.74;100199.81;12972988;22;20471;-66
2023/03/19 14:50:14;;;;;;;0.30;0.10;;;;;;;17.57;51.86;100204.84;12916682;22;20027;-66
2023/03/19 14:55:16;;;;;;;1.73;0.20;;;;;;;17.57;52.71;100195.88;12971036;22;20031;-66
2023/03/19 15:00:19;;;;;;;1.55;0.28;;;;;;;17.67;52.12;100195.34;12982463;22;20037;-66
2023/03/19 15:05:25;;;;;;;0.70;0.30;;;;;;;17.77;52.08;100193.78;12946804;22;20029;-65
2023/03/19 15:10:29;;;;;;;1.50;0.40;;;;;;;17.95;51.70;100186.66;12973429;22;20099;-65
2023/03/19 15:15:38;;;;;;;1.27;0.30;;;;;;;17.77;52.00;100180.19;12943861;22;20448;-66
2023/03/19 15:20:46;;;;;;;2.13;0.30;;;;;;;17.70;52.24;100192.19;12983221;22;20031;-65
2023/03/19 15:25:56;;;;;;;0.50;0.20;;;;;;;17.53;52.07;100184.63;12972839;22;20043;-68
2023/03/19 15:31:01;;;;;;;4.70;0.50;;;;;;;17.64;51.91;100199.34;12920072;22;20020;-67
2023/03/19 15:36:32;;;;;;;2.95;1.05;;;;;;;17.62;50.96;100193.31;12971692;22;20077;-67
2023/03/19 15:41:40;;;;;;;0.70;0.40;;;;;;;17.80;51.17;100189.75;12942637;22;20472;-67
2023/03/19 15:46:43;;;;;;;0.20;0.10;;;;;;;18.13;50.56;100185.84;12970883;22;20355;-67
2023/03/19 15:51:50;;;;;;;0.73;0.20;;;;;;;18.55;49.74;100188.56;12978340;22;20032;-66
2023/03/19 15:56:52;;;;;;;1.58;0.90;;;;;;;18.87;48.71;100191.84;13003018;22;20059;-68
2023/03/19 16:01:58;;;;;;;0.63;0.20;;;;;;;18.98;47.46;100188.31;12994575;22;20023;-72
2023/03/19 16:07:00;;;;;;;0.20;0.10;;;;;;;18.92;47.12;100196.63;12953648;22;20030;-64
2023/03/19 16:12:01;;;;;;;1.65;0.20;;;;;;;19.12;46.84;100191.66;12979029;22;20024;-64
2023/03/19 16:17:11;;;;;;;0.30;0.10;;;;;;;19.07;46.83;100196.16;12978481;22;20030;-61
2023/03/19 16:22:16;;;;;;;0.28;0.20;;;;;;;18.95;47.09;100198.84;12978177;22;20028;-62
2023/03/19 16:27:21;;;;;;;1.55;0.20;;;;;;;18.75;47.32;100199.97;12983533;22;20124;-61
2023/03/19 16:32:25;;;;;;;0.30;0.10;;;;;;;18.57;47.57;100198.16;12976137;22;20019;-63
2023/03/19 16:37:32;;;;;;;0.63;0.17;;;;;;;18.28;47.83;100204.44;12976911;22;20035;-66
2023/03/19 16:42:34;;;;;;;0.22;0.20;;;;;;;18.18;47.77;100224.03;12982344;22;20027;-62
2023/03/19 16:47:35;;;;;;;0.65;0.20;;;;;;;17.97;48.04;100228.91;12949807;22;20019;-65
2023/03/19 16:52:38;;;;;;;1.13;0.25;;;;;;;17.92;48.55;100230.66;12957142;22;20089;-67
2023/03/19 16:57:40;;;;;;;0.75;0.30;;;;;;;17.80;48.72;100234.09;12984849;22;20011;-66
2023/03/19 17:02:41;;;;;;;0.65;0.40;;;;;;;17.70;48.97;100241.13;12992353;22;20089;-65
2023/03/19 17:07:43;;;;;;;2.28;0.20;;;;;;;17.48;49.32;100243.44;12986674;22;20040;-66
2023/03/19 17:12:47;;;;;;;1.70;0.30;;;;;;;17.19;49.80;100254.75;12983822;22;20334;-66
2023/03/19 17:17:49;;;;;;;0.82;0.30;;;;;;;17.14;49.81;100257.31;12998628;22;20166;-66
2023/03/19 17:22:51;;;;;;;0.70;0.35;;;;;;;16.96;50.40;100266.25;12985666;22;20023;-66
2023/03/19 17:27:52;;;;;;;1.10;0.40;;;;;;;16.67;51.10;100273.09;12983903;22;20073;-65
2023/03/19 17:32:55;;;;;;;1.98;0.82;;;;;;;16.64;51.72;100276.22;12980602;22;20027;-65
2023/03/19 17:37:57;;;;;;;2.08;0.50;;;;;;;16.52;51.70;100280.69;12982777;22;20027;-65
2023/03/19 17:42:58;;;;;;;2.65;0.60;;;;;;;16.42;52.42;100281.97;12980489;22;20507;-66
2023/03/19 17:48:00;;;;;;;1.10;0.68;;;;;;;16.20;53.05;100288.75;12991199;22;20122;-65
2023/03/19 17:53:01;;;;;;;2.47;0.73;;;;;;;16.05;53.55;100294.41;12982405;22;20032;-65
2023/03/19 17:58:03;;;;;;;1.25;0.60;;;;;;;15.91;53.91;100299.03;12983011;22;20487;-66
2023/03/19 18:03:04;;;;;;;2.75;0.63;;;;;;;15.78;54.18;100301.81;12986403;22;20028;-66
2023/03/19 18:08:05;;;;;;;2.38;0.82;;;;;;;15.69;54.73;100311.16;12957644;22;20325;-66
2023/03/19 18:13:08;;;;;;;3.47;1.52;;;;;;;15.64;54.94;100319.94;12983224;22;20027;-65
2023/03/19 18:18:19;;;;;;;3.97;1.55;;;;;;;15.58;55.20;100324.31;12984302;22;20079;-65
2023/03/19 18:23:22;;;;;;;2.78;1.60;;;;;;;15.49;55.53;100324.75;12982820;22;20030;-66
2023/03/19 18:28:24;;;;;;;3.60;2.25;;;;;;;15.39;55.84;100325.16;12981851;22;20035;-64
2023/03/19 18:33:29;;;;;;;6.00;2.20;;;;;;;15.31;56.17;100325.38;12978968;22;20488;-65
2023/03/19 18:38:30;;;;;;;4.40;2.22;;;;;;;15.24;56.47;100331.59;12979840;22;20038;-65
2023/03/19 18:43:31;;;;;;;5.75;2.53;;;;;;;15.15;56.80;100332.84;12981295;22;20027;-65
2023/03/19 18:48:33;;;;;;;2.67;1.48;;;;;;;15.04;56.59;100336.97;12979722;22;20107;-65
2023/03/19 18:53:34;;;;;;;4.40;1.80;;;;;;;14.92;57.20;100337.78;12993090;22;20058;-64
2023/03/19 18:58:37;;;;;;;5.05;1.90;;;;;;;14.80;57.47;100342.97;12979842;22;20050;-66
2023/03/19 19:03:39;;;;;;;5.40;3.08;;;;;;;14.57;57.84;100348.72;12951099;22;20020;-66
2023/03/19 19:08:40;;;;;;;5.90;3.53;;;;;;;14.43;58.50;100345.09;12949500;22;20029;-65
2023/03/19 19:13:46;;;;;;;6.15;3.38;;;;;;;14.36;58.56;100358.59;12979231;22;20089;-65
2023/03/19 19:18:57;;;;;;;6.88;3.28;;;;;;;14.26;58.70;100356.25;12978416;22;20024;-65
2023/03/19 19:23:58;;;;;;;8.30;4.93;;;;;;;14.12;58.90;100370.75;12979632;22;20019;-70
2023/03/19 19:29:00;;;;;;;10.13;4.95;;;;;;;13.85;59.67;100378.66;12969168;22;20031;-70
2023/03/19 19:34:01;;;;;;;6.63;3.28;;;;;;;13.45;60.86;100380.22;12976109;22;20400;-71
2023/03/19 19:39:03;;;;;;;6.55;3.58;;;;;;;13.48;60.87;100387.91;12918910;22;20028;-70
2023/03/19 19:44:05;;;;;;;7.50;3.20;;;;;;;13.47;60.88;100400.59;12972512;22;20456;-72
2023/03/19 19:49:11;;;;;;;9.90;5.88;;;;;;;13.45;61.04;100405.34;12946579;22;20526;-72
2023/03/19 19:54:13;;;;;;;7.10;4.53;;;;;;;13.47;60.88;100407.84;12982153;22;20518;-70
2023/03/19 19:59:14;;;;;;;8.98;5.00;;;;;;;13.49;61.05;100409.31;12972387;22;20335;-67
2023/03/19 20:04:16;;;;;;;9.38;4.80;;;;;;;13.54;61.22;100414.13;12945869;22;20407;-70
2023/03/19 20:09:17;;;;;;;7.43;5.03;;;;;;;13.55;61.04;100421.22;12943480;22;20081;-71
2023/03/19 20:14:19;;;;;;;7.72;4.85;;;;;;;13.54;61.59;100427.63;12972803;22;20023;-70
2023/03/19 20:19:20;;;;;;;8.23;5.28;;;;;;;13.59;61.37;100435.19;12972892;22;20488;-71
2023/03/19 20:24:22;;;;;;;6.25;4.50;;;;;;;13.64;61.26;100432.72;12969132;22;20020;-69
2023/03/19 20:29:23;;;;;;;9.43;5.78;;;;;;;13.67;61.47;100432.34;12973207;22;20089;-69
2023/03/19 20:34:24;;;;;;;10.55;5.97;;;;;;;13.63;61.41;100450.81;12970524;22;20019;-69
2023/03/19 20:39:39;;;;;;;8.73;4.95;;;;;;;13.54;61.58;100446.53;12977284;22;20054;-69
2023/03/19 20:44:42;;;;;;;5.95;2.60;;;;;;;13.41;61.91;100447.25;12971604;22;20403;-68
2023/03/19 20:49:44;;;;;;;4.13;3.00;;;;;;;13.49;61.83;100455.25;12972818;22;20032;-69
2023/03/19 20:54:46;;;;;;;8.77;4.20;;;;;;;13.55;61.51;100452.81;12977897;22;20652;-69
2023/03/19 20:59:48;;;;;;;5.80;3.88;;;;;;;13.55;61.69;100459.03;12971059;22;20023;-70
2023/03/19 21:04:50;;;;;;;7.07;3.63;;;;;;;13.39;62.24;100472.75;12913549;22;20020;-69
2023/03/19 21:09:51;;;;;;;4.35;1.95;;;;;;;13.27;62.54;100485.94;12969168;22;20054;-70
2023/03/19 21:14:53;;;;;;;3.25;1.40;;;;;;;13.23;62.47;100488.16;12969854;22;20060;-70
2023/03/19 21:19:55;;;;;;;5.13;1.98;;;;;;;13.37;62.23;100491.88;12941865;22;20069;-70
2023/03/19 21:25:06;;;;;;;4.65;2.38;;;;;;;13.47;62.08;100494.28;12972338;22;20089;-70
2023/03/19 21:30:13;;;;;;;4.28;2.80;;;;;;;13.51;62.09;100490.16;12980581;22;20232;-70
2023/03/19 21:35:23;;;;;;;6.75;3.58;;;;;;;13.51;62.29;100490.16;12970819;22;20050;-70
2023/03/19 21:40:28;;;;;;;7.03;3.00;;;;;;;13.57;62.20;100493.97;12971224;22;20089;-70
2023/03/19 21:45:32;;;;;;;6.85;3.00;;;;;;;13.59;62.26;100498.13;12972511;22;20093;-69
2023/03/19 21:50:34;;;;;;;6.15;3.15;;;;;;;13.62;61.81;100496.91;12972168;22;20027;-70
2023/03/19 21:55:35;;;;;;;3.85;2.40;;;;;;;13.64;62.04;100497.53;12970594;22;20020;-70
2023/03/19 22:00:37;;;;;;;5.20;3.25;;;;;;;13.66;62.17;100499.06;12970967;22;20490;-69
2023/03/19 22:05:39;;;;;;;4.15;2.95;;;;;;;13.71;62.36;100495.75;12972179;22;20074;-69
2023/03/19 22:10:41;;;;;;;5.35;3.67;;;;;;;13.73;62.17;100492.88;12970480;22;20035;-70
2023/03/19 22:15:43;;;;;;;11.73;3.75;;;;;;;13.77;62.31;100494.97;12968440;22;20419;-70
2023/03/19 22:20:45;;;;;;;6.63;3.88;;;;;;;13.81;62.39;100493.56;12980627;22;20046;-69
2023/03/19 22:25:49;;;;;;;7.07;4.55;;;;;;;13.83;62.92;100496.91;12970124;22;20448;-69
2023/03/19 22:30:51;;;;;;;6.63;4.18;;;;;;;13.81;63.13;100495.44;12970296;22;20027;-69
2023/03/19 22:35:52;;;;;;;7.38;4.57;;;;;;;13.83;62.79;100496.09;12971608;22;20240;-70
2023/03/19 22:40:55;;;;;;;5.10;3.63;;;;;;;13.85;63.33;100492.16;12919668;22;20054;-69
2023/03/19 22:46:01;;;;;;;6.53;3.90;;;;;;;13.86;63.09;100484.88;12944549;22;20050;-69
2023/03/19 22:51:03;;;;;;;7.97;4.28;;;;;;;13.84;63.19;100486.94;12967988;22;20043;-70
2023/03/19 22:56:05;;;;;;;4.60;3.80;;;;;;;13.79;63.65;100489.41;12969798;22;20054;-70
2023/03/19 23:01:27;;;;;;;6.82;4.07;;;;;;;13.69;63.43;100484.31;12941292;22;20028;-70
2023/03/19 23:06:29;;;;;;;6.25;4.55;;;;;;;13.73;63.86;100482.06;12967244;22;20468;-70
2023/03/19 23:11:31;;;;;;;6.15;4.22;;;;;;;13.62;64.15;100481.53;12968251;22;20409;-69
2023/03/19 23:16:32;;;;;;;5.00;4.00;;;;;;;13.53;64.27;100471.91;12969711;22;20102;-69
2023/03/19 23:21:34;;;;;;;5.28;4.13;;;;;;;13.42;64.54;100485.91;12940609;22;20039;-69